Time;durP1;ratioP1;P1;durP2;ratioP2;P2;SDS_P1;SDS_P2;PMS_P1;PMS_P2;Temp;Humidity;BMP_temperature;BMP_pressure;BME280_temperature;BME280_humidity;BME280_pressure;Samples;Min_cycle;Max_cycle;Signal;HPM_P1;HPM_P2
2022/02/02 00:00:38;;;;;;;25.05;2.60;;;7.70;99.90;;;;;;6129145;23;20006;-89
2022/02/02 00:03:10;;;;;;;31.33;3.35;;;7.60;99.90;;;;;;6128952;23;20006;-88
2022/02/02 00:08:16;;;;;;;30.48;3.58;;;7.70;99.90;;;;;;6128646;23;20016;-89
2022/02/02 00:11:10;;;;;;;24.55;3.78;;;7.80;99.90;;;;;;6129001;23;20002;-88
2022/02/02 00:18:52;;;;;;;28.65;3.22;;;7.60;99.90;;;;;;6129140;23;20043;-88
2022/02/02 00:21:25;;;;;;;35.88;4.32;;;7.60;99.90;;;;;;6128670;23;20005;-91
2022/02/02 00:23:56;;;;;;;32.85;4.13;;;7.60;99.90;;;;;;6104302;23;20017;-90
2022/02/02 00:26:30;;;;;;;20.95;2.20;;;7.70;99.90;;;;;;6104744;23;20014;-90
2022/02/02 00:29:02;;;;;;;24.05;3.20;;;7.60;99.90;;;;;;6104565;23;20378;-89
2022/02/02 00:31:35;;;;;;;30.48;3.15;;;7.60;99.90;;;;;;6104149;23;20024;-88
2022/02/02 00:34:05;;;;;;;29.55;3.13;;;7.50;99.90;;;;;;6104040;23;20333;-89
2022/02/02 00:36:41;;;;;;;31.48;3.60;;;7.40;99.90;;;;;;6103618;23;20035;-90
2022/02/02 00:39:07;;;;;;;29.25;3.97;;;7.50;99.90;;;;;;6104616;23;20096;-89
2022/02/02 00:41:36;;;;;;;35.88;3.65;;;7.40;99.90;;;;;;6128535;23;20013;-90
2022/02/02 00:44:03;;;;;;;37.45;3.97;;;7.50;99.90;;;;;;6154495;23;20009;-89
2022/02/02 00:46:29;;;;;;;39.75;4.18;;;7.50;99.90;;;;;;6104011;23;20009;-89
2022/02/02 00:49:03;;;;;;;45.30;6.13;;;7.50;99.90;;;;;;6104397;23;20340;-89
2022/02/02 00:51:47;;;;;;;32.20;5.45;;;7.50;99.90;;;;;;6128277;23;20448;-89
2022/02/02 00:54:22;;;;;;;35.33;3.40;;;7.40;99.90;;;;;;6117380;23;20018;-88
2022/02/02 00:56:48;;;;;;;30.48;4.15;;;7.40;99.90;;;;;;6127868;23;20308;-88
2022/02/02 00:59:14;;;;;;;37.42;4.93;;;7.50;99.90;;;;;;6153332;23;20049;-89
2022/02/02 01:01:40;;;;;;;35.95;4.20;;;7.60;99.90;;;;;;6153060;23;20064;-90
2022/02/02 01:04:06;;;;;;;38.72;4.70;;;7.60;99.90;;;;;;6128354;23;20017;-88
2022/02/02 01:06:37;;;;;;;37.17;4.95;;;7.60;99.90;;;;;;6127955;23;20032;-88
2022/02/02 01:09:22;;;;;;;44.40;4.80;;;7.60;99.90;;;;;;6128550;23;20010;-89
2022/02/02 01:12:05;;;;;;;44.17;4.22;;;7.70;99.90;;;;;;6127879;23;20037;-90
2022/02/02 01:20:33;;;;;;;43.05;4.68;;;7.70;99.90;;;;;;6068479;23;20387;-89
2022/02/02 01:28:27;;;;;;;45.30;4.13;;;7.80;99.90;;;;;;6069157;23;20010;-88
2022/02/02 01:30:54;;;;;;;47.92;4.70;;;7.70;99.90;;;;;;6068894;23;20022;-87
2022/02/02 01:33:20;;;;;;;40.45;5.18;;;7.70;99.90;;;;;;6068207;23;20010;-88
2022/02/02 01:35:46;;;;;;;41.65;5.30;;;7.60;99.90;;;;;;6067979;23;20014;-87
2022/02/02 01:38:12;;;;;;;36.92;3.92;;;7.60;99.90;;;;;;6068714;23;20332;-87
2022/02/02 01:40:43;;;;;;;37.67;5.22;;;7.50;99.90;;;;;;6068529;23;20575;-89
2022/02/02 01:43:17;;;;;;;44.88;5.18;;;7.40;99.90;;;;;;6068887;23;20038;-88
2022/02/02 01:45:57;;;;;;;45.00;4.53;;;7.30;99.90;;;;;;6092409;23;20007;-88
2022/02/02 01:48:44;;;;;;;40.55;5.00;;;7.40;99.90;;;;;;6068807;23;20174;-91
2022/02/02 01:54:00;;;;;;;36.63;5.38;;;7.40;99.90;;;;;;6068049;23;20090;-90
2022/02/02 01:56:25;;;;;;;37.00;4.80;;;7.40;99.90;;;;;;6129695;23;20010;-90
2022/02/02 01:59:01;;;;;;;37.15;4.28;;;7.50;99.90;;;;;;6152635;23;20454;-87
2022/02/02 02:01:30;;;;;;;47.90;5.35;;;7.50;99.90;;;;;;6152873;23;20059;-88
2022/02/02 02:03:57;;;;;;;44.25;5.80;;;7.60;99.90;;;;;;6127684;23;20457;-86
2022/02/02 02:06:23;;;;;;;43.63;5.80;;;7.80;99.90;;;;;;6128198;23;20033;-88
2022/02/02 02:08:49;;;;;;;39.10;5.22;;;7.80;99.90;;;;;;6127581;23;20025;-88
2022/02/02 02:11:18;;;;;;;46.45;5.70;;;7.70;99.90;;;;;;6152402;23;20010;-89
2022/02/02 02:16:10;;;;;;;46.03;4.80;;;7.80;99.90;;;;;;6152824;23;20016;-89
2022/02/02 02:18:36;;;;;;;29.45;4.80;;;7.80;99.90;;;;;;6151995;23;20010;-90
2022/02/02 02:21:09;;;;;;;41.97;4.95;;;7.70;99.90;;;;;;6152534;23;20012;-87
2022/02/02 02:23:37;;;;;;;40.70;4.72;;;7.70;99.90;;;;;;6152660;23;20099;-88
2022/02/02 02:26:05;;;;;;;35.53;5.35;;;7.70;99.90;;;;;;6128072;23;20033;-88
2022/02/02 02:28:43;;;;;;;52.15;8.30;;;7.70;99.90;;;;;;6152122;23;20009;-91
2022/02/02 02:31:34;;;;;;;39.63;4.07;;;7.70;99.90;;;;;;6128702;23;20014;-88
2022/02/02 02:58:17;;;;;;;36.22;3.80;;;7.60;99.90;;;;;;6100145;23;20014;-89
2022/02/02 03:01:11;;;;;;;32.17;5.15;;;7.50;99.90;;;;;;6076594;23;20006;-86
2022/02/02 03:50:54;;;;;;;31.08;3.83;;;7.40;99.90;;;;;;6100377;23;20010;-90
2022/02/02 03:53:23;;;;;;;29.13;3.08;;;7.30;99.90;;;;;;6088269;23;20005;-88
2022/02/02 03:55:47;;;;;;;40.22;4.22;;;7.30;99.90;;;;;;6128069;23;20029;-89
2022/02/02 04:00:55;;;;;;;38.60;4.50;;;7.50;99.90;;;;;;6128741;23;20033;-89
2022/02/02 04:05:52;;;;;;;44.38;4.90;;;7.40;99.90;;;;;;6128582;23;20567;-90
2022/02/02 04:10:50;;;;;;;40.78;4.05;;;7.60;99.90;;;;;;6155229;23;20450;-86
2022/02/02 04:59:12;;;;;;;14.10;0.90;;;7.40;99.90;;;;;;6152693;23;20057;-90
2022/02/02 05:09:35;;;;;;;16.17;1.50;;;7.30;99.90;;;;;;6153118;23;20013;-88
2022/02/02 05:22:58;;;;;;;31.00;3.22;;;7.30;99.90;;;;;;6152739;23;20453;-88
2022/02/02 05:49:37;;;;;;;38.08;3.88;;;7.60;99.90;;;;;;6151151;23;20374;-88
2022/02/02 05:52:04;;;;;;;30.95;4.22;;;7.60;99.90;;;;;;6152158;23;20006;-88
2022/02/02 05:54:29;;;;;;;33.42;4.97;;;7.50;99.90;;;;;;6128130;23;20597;-90
2022/02/02 05:56:55;;;;;;;31.00;4.18;;;7.50;99.90;;;;;;6152334;23;20055;-91
2022/02/02 05:59:23;;;;;;;43.42;4.80;;;7.40;99.90;;;;;;6152972;23;20017;-88
2022/02/02 06:01:59;;;;;;;35.58;4.65;;;7.40;99.90;;;;;;6151997;23;20339;-88
2022/02/02 06:04:29;;;;;;;28.65;4.40;;;7.40;99.90;;;;;;6151882;23;20091;-90
2022/02/02 06:07:01;;;;;;;35.55;2.42;;;7.30;99.90;;;;;;6128129;23;20012;-89
2022/02/02 06:09:35;;;;;;;25.35;2.90;;;7.20;99.90;;;;;;6152077;23;20001;-88
2022/02/02 06:12:09;;;;;;;22.40;2.33;;;7.20;99.90;;;;;;6128558;23;20430;-88
2022/02/02 06:14:39;;;;;;;27.35;2.50;;;7.00;99.90;;;;;;6151770;23;19997;-89
2022/02/02 06:17:08;;;;;;;23.10;2.22;;;7.10;99.90;;;;;;6152591;23;20021;-87
2022/02/02 06:19:33;;;;;;;26.73;3.10;;;7.00;99.90;;;;;;6152636;23;20025;-88
2022/02/02 06:22:09;;;;;;;26.73;2.42;;;7.00;99.90;;;;;;6129494;23;20032;-88
2022/02/02 06:24:43;;;;;;;26.85;2.25;;;6.90;99.90;;;;;;6155768;23;20009;-88
2022/02/02 06:27:09;;;;;;;24.60;2.20;;;6.90;99.90;;;;;;6129214;23;20344;-87
2022/02/02 06:29:45;;;;;;;29.15;2.67;;;6.90;99.90;;;;;;6154524;23;20081;-87
2022/02/02 06:32:14;;;;;;;23.02;2.38;;;6.90;99.90;;;;;;6130110;23;20084;-87
2022/02/02 06:34:46;;;;;;;17.27;1.90;;;6.90;99.90;;;;;;6128972;23;20469;-87
2022/02/02 06:37:13;;;;;;;21.75;2.75;;;6.90;99.90;;;;;;6128721;23;20033;-87
2022/02/02 06:39:39;;;;;;;19.95;1.92;;;6.80;99.90;;;;;;6153388;23;20020;-87
2022/02/02 06:42:07;;;;;;;21.67;1.70;;;6.90;99.90;;;;;;6129572;23;20382;-88
2022/02/02 06:44:34;;;;;;;26.60;2.58;;;6.80;99.90;;;;;;6153989;23;20010;-87
2022/02/02 06:47:01;;;;;;;37.63;4.07;;;6.90;99.90;;;;;;6129651;23;20009;-88
2022/02/02 06:49:26;;;;;;;27.67;3.20;;;7.00;99.90;;;;;;6153044;23;20013;-88
2022/02/02 06:52:04;;;;;;;27.45;3.00;;;7.00;99.90;;;;;;6129401;23;20108;-90
2022/02/02 06:54:50;;;;;;;34.33;3.85;;;6.90;99.90;;;;;;6144824;23;20358;-87
2022/02/02 06:57:32;;;;;;;31.40;4.55;;;6.90;99.90;;;;;;6127812;23;20131;-88
2022/02/02 07:00:18;;;;;;;42.25;4.55;;;7.00;99.90;;;;;;6129526;23;20018;-88
2022/02/02 07:02:59;;;;;;;24.98;2.92;;;7.00;99.90;;;;;;6153482;23;20056;-87
2022/02/02 07:05:32;;;;;;;24.75;2.97;;;6.90;99.90;;;;;;6153583;23;20014;-86
2022/02/02 07:11:16;;;;;;;22.48;3.05;;;6.90;99.90;;;;;;6153587;23;20014;-87
2022/02/02 07:16:22;;;;;;;27.98;2.85;;;6.90;99.90;;;;;;6153060;23;20080;-86
2022/02/02 07:29:31;;;;;;;18.42;1.90;;;6.70;99.90;;;;;;6153651;23;20006;-87
2022/02/02 07:34:47;;;;;;;16.15;1.48;;;6.70;99.90;;;;;;6154471;23;20451;-86
2022/02/02 07:37:25;;;;;;;15.50;1.20;;;6.70;99.90;;;;;;6127524;23;20001;-86
2022/02/02 07:39:55;;;;;;;11.52;0.98;;;6.60;99.90;;;;;;6128771;23;20040;-86
2022/02/02 07:42:24;;;;;;;29.45;2.85;;;6.50;99.90;;;;;;6129313;23;20430;-87
2022/02/02 07:44:54;;;;;;;21.80;2.95;;;6.70;99.90;;;;;;6128433;23;20010;-87
2022/02/02 07:47:21;;;;;;;26.80;2.80;;;6.70;99.90;;;;;;6153709;23;20005;-86
2022/02/02 07:49:52;;;;;;;23.35;2.47;;;6.70;99.90;;;;;;6153072;23;20435;-87
2022/02/02 07:52:20;;;;;;;18.38;2.10;;;6.70;99.90;;;;;;6127747;23;20038;-89
2022/02/02 07:54:48;;;;;;;19.33;1.67;;;6.80;99.90;;;;;;6128267;23;20010;-88
2022/02/02 07:57:19;;;;;;;27.45;2.83;;;6.90;99.90;;;;;;6128850;23;20013;-88
2022/02/02 07:59:56;;;;;;;15.50;1.55;;;6.90;99.90;;;;;;6128846;23;20055;-87
2022/02/02 08:02:43;;;;;;;23.88;1.95;;;7.00;99.90;;;;;;6152959;23;20028;-88
2022/02/02 08:05:11;;;;;;;25.73;2.53;;;7.00;99.90;;;;;;6154597;23;20017;-88
2022/02/02 08:07:42;;;;;;;23.13;2.17;;;7.00;99.90;;;;;;6127978;23;20064;-88
2022/02/02 08:10:22;;;;;;;19.98;1.98;;;7.00;99.90;;;;;;6152645;23;20012;-89
2022/02/02 08:12:51;;;;;;;15.82;1.40;;;7.00;99.90;;;;;;6152947;23;20091;-88
2022/02/02 08:15:19;;;;;;;19.90;2.22;;;7.00;99.90;;;;;;6152821;23;20013;-89
2022/02/02 08:17:48;;;;;;;17.58;1.50;;;7.00;99.90;;;;;;6128560;23;20017;-87
2022/02/02 08:20:14;;;;;;;16.15;1.90;;;6.90;99.90;;;;;;6128013;23;20021;-87
2022/02/02 08:22:40;;;;;;;16.50;1.27;;;6.90;99.90;;;;;;6152866;23;20474;-88
2022/02/02 08:25:11;;;;;;;14.40;0.80;;;6.90;99.90;;;;;;6152525;23;20092;-87
2022/02/02 08:27:41;;;;;;;18.73;2.08;;;6.90;99.90;;;;;;6152626;23;20017;-88
2022/02/02 08:30:12;;;;;;;24.98;3.17;;;7.00;99.90;;;;;;6129116;23;20443;-89
2022/02/02 08:32:55;;;;;;;25.55;4.10;;;7.10;99.90;;;;;;6128411;23;20056;-89
2022/02/02 08:35:21;;;;;;;28.52;3.08;;;7.10;99.90;;;;;;6152509;23;20054;-88
2022/02/02 08:37:54;;;;;;;33.70;3.55;;;7.20;99.90;;;;;;6127837;23;20383;-85
2022/02/02 08:40:31;;;;;;;29.30;3.67;;;7.20;99.90;;;;;;6152849;23;20338;-90
2022/02/02 08:43:01;;;;;;;29.08;3.22;;;7.30;99.90;;;;;;6153260;23;20009;-89
2022/02/02 08:45:31;;;;;;;33.10;3.40;;;7.30;99.90;;;;;;6128754;23;20029;-90
2022/02/02 08:48:01;;;;;;;;;;;7.30;99.90;;;;;;6128913;23;20059;-87
2022/02/02 08:50:32;;;;;;;26.00;2.92;;;7.30;99.90;;;;;;6127858;23;19912;-87
2022/02/02 08:53:08;;;;;;;24.85;2.85;;;7.20;99.90;;;;;;6127759;23;20009;-88
2022/02/02 08:55:58;;;;;;;18.63;1.67;;;7.30;99.90;;;;;;6127320;23;20040;-90
2022/02/02 08:58:31;;;;;;;24.33;2.60;;;7.50;99.90;;;;;;6103744;23;20021;-90
2022/02/02 09:00:59;;;;;;;19.05;2.22;;;7.50;99.90;;;;;;6103763;23;20016;-90
2022/02/02 09:06:10;;;;;;;20.90;1.88;;;7.50;99.90;;;;;;6128064;23;20013;-91
2022/02/02 09:08:36;;;;;;;22.58;2.40;;;7.50;99.90;;;;;;6103016;23;20450;-89
2022/02/02 09:25:02;;;;;;;26.40;3.03;;;7.50;99.90;;;;;;6153417;23;20005;-90
2022/02/02 09:35:52;;;;;;;21.60;2.67;;;7.60;99.90;;;;;;6067987;23;20444;-91
2022/02/02 09:38:18;;;;;;;25.92;3.28;;;7.70;99.90;;;;;;6068597;23;20023;-88
2022/02/02 09:41:20;;;;;;;21.75;1.67;;;7.70;99.90;;;;;;6044109;23;20010;-88
2022/02/02 09:43:45;;;;;;;25.92;2.85;;;7.80;99.90;;;;;;6067267;23;20098;-88
2022/02/02 09:46:15;;;;;;;19.27;2.25;;;7.80;99.90;;;;;;6044662;23;20055;-88
2022/02/02 09:48:51;;;;;;;23.83;2.85;;;7.80;99.90;;;;;;6067674;23;20094;-91
2022/02/02 09:51:26;;;;;;;22.73;2.42;;;7.80;99.90;;;;;;6044424;23;20014;-86
2022/02/02 09:54:00;;;;;;;17.77;1.88;;;7.80;99.90;;;;;;6043457;23;20022;-90
2022/02/02 10:07:30;;;;;;;18.20;2.75;;;7.70;99.90;;;;;;6068190;23;20015;-88
2022/02/02 10:15:15;;;;;;;21.02;1.63;;;7.80;99.90;;;;;;6097976;23;20306;-90
2022/02/02 10:17:40;;;;;;;24.60;3.00;;;7.80;99.90;;;;;;6097754;23;20009;-89
2022/02/02 10:20:17;;;;;;;25.00;3.15;;;7.90;99.90;;;;;;6074145;23;20589;-89
2022/02/02 10:22:48;;;;;;;26.65;2.75;;;7.90;99.90;;;;;;6097999;23;20061;-90
2022/02/02 10:25:26;;;;;;;24.75;3.53;;;7.90;99.90;;;;;;6074192;23;20010;-90
2022/02/02 10:27:52;;;;;;;24.52;2.83;;;7.90;99.90;;;;;;6073504;23;20006;-89
2022/02/02 10:30:20;;;;;;;26.88;3.15;;;8.00;99.90;;;;;;6074177;23;20064;-90
2022/02/02 10:32:48;;;;;;;23.98;2.83;;;8.00;99.90;;;;;;6073620;23;20017;-90
2022/02/02 10:35:41;;;;;;;32.53;3.47;;;8.10;99.90;;;;;;6074212;23;20014;-88
2022/02/02 10:38:12;;;;;;;25.15;2.80;;;8.10;99.90;;;;;;6086089;23;20010;-89
2022/02/02 10:40:48;;;;;;;26.27;2.95;;;8.20;99.90;;;;;;6097840;23;20013;-89
2022/02/02 10:43:28;;;;;;;23.67;2.40;;;8.30;99.90;;;;;;6074147;23;20013;-89
2022/02/02 10:45:54;;;;;;;23.00;2.55;;;8.60;99.90;;;;;;6073783;23;20016;-88
2022/02/02 10:48:32;;;;;;;31.52;3.55;;;8.70;99.90;;;;;;6074146;23;20059;-90
2022/02/02 10:51:06;;;;;;;35.90;4.28;;;8.80;99.90;;;;;;6073751;23;20080;-90
2022/02/02 10:53:49;;;;;;;35.72;5.18;;;8.80;99.90;;;;;;6133383;23;20072;-88
2022/02/02 10:56:29;;;;;;;35.40;4.03;;;8.80;99.90;;;;;;6102513;23;20016;-89
2022/02/02 10:59:19;;;;;;;34.38;4.28;;;8.70;99.90;;;;;;6102515;23;20061;-89
2022/02/02 11:01:49;;;;;;;31.90;4.15;;;8.60;99.90;;;;;;6102732;23;20442;-89
2022/02/02 11:07:00;;;;;;;36.65;4.15;;;8.80;99.90;;;;;;6129406;23;20022;-91
2022/02/02 11:09:26;;;;;;;28.63;3.70;;;8.80;99.90;;;;;;6128800;23;20121;-91
2022/02/02 11:11:56;;;;;;;27.48;3.13;;;8.80;99.90;;;;;;6128638;23;20312;-89
2022/02/02 11:14:48;;;;;;;29.95;3.95;;;9.20;99.90;;;;;;6128244;23;20001;-90
2022/02/02 11:17:33;;;;;;;31.75;4.10;;;9.30;99.90;;;;;;6155381;23;20013;-89
2022/02/02 11:20:04;;;;;;;24.33;4.30;;;9.50;99.90;;;;;;6105173;23;20017;-90
2022/02/02 11:22:49;;;;;;;30.50;4.50;;;9.20;99.90;;;;;;6128850;23;20012;-89
2022/02/02 11:25:15;;;;;;;31.63;3.70;;;9.10;99.90;;;;;;6129357;23;20010;-90
2022/02/02 11:27:46;;;;;;;24.23;3.13;;;9.00;99.90;;;;;;6104173;23;19997;-90
2022/02/02 11:30:23;;;;;;;28.33;3.20;;;9.10;99.90;;;;;;6104641;23;20089;-88
2022/02/02 11:32:55;;;;;;;29.15;2.45;;;9.10;99.90;;;;;;6104332;23;20016;-89
2022/02/02 11:35:44;;;;;;;26.83;2.72;;;9.30;99.90;;;;;;6104717;23;20012;-88
2022/02/02 11:38:23;;;;;;;28.52;2.58;;;9.10;99.90;;;;;;6129100;23;20109;-88
2022/02/02 11:41:09;;;;;;;21.35;2.58;;;9.00;99.90;;;;;;6128968;23;20350;-90
2022/02/02 11:46:42;;;;;;;22.55;2.67;;;8.90;99.90;;;;;;6128908;23;20100;-87
2022/02/02 11:49:14;;;;;;;24.00;2.22;;;8.90;99.90;;;;;;6104888;23;20009;-89
2022/02/02 11:51:43;;;;;;;26.27;2.85;;;8.80;99.90;;;;;;6128579;23;20067;-87
2022/02/02 11:54:11;;;;;;;29.65;3.22;;;8.60;99.90;;;;;;6116155;23;20021;-91
2022/02/02 11:57:00;;;;;;;29.23;3.85;;;8.80;99.90;;;;;;6152774;23;20389;-89
2022/02/02 12:00:00;;;;;;;23.40;2.70;;;9.10;99.90;;;;;;6152783;23;20022;-88
2022/02/02 12:10:41;;;;;;;27.05;2.67;;;9.30;99.90;;;;;;6154154;23;20068;-87
2022/02/02 12:49:01;;;;;;;18.00;1.50;;;10.40;99.90;;;;;;6152443;23;20012;-89
2022/02/02 12:57:04;;;;;;;10.68;1.10;;;10.30;99.90;;;;;;6122523;23;20113;-89
2022/02/02 13:02:18;;;;;;;12.93;1.15;;;10.20;99.90;;;;;;6128170;23;20010;-89
2022/02/02 13:04:46;;;;;;;11.30;1.40;;;10.20;99.90;;;;;;6102958;23;20020;-89
2022/02/02 13:07:18;;;;;;;17.48;1.60;;;10.30;99.90;;;;;;6103819;23;20430;-90
2022/02/02 13:09:50;;;;;;;20.77;1.30;;;10.20;99.90;;;;;;6103649;23;20005;-90
2022/02/02 13:12:25;;;;;;;13.98;1.83;;;10.10;99.90;;;;;;6102927;23;20114;-89
2022/02/02 13:15:07;;;;;;;14.73;1.75;;;10.20;99.90;;;;;;6127278;23;20056;-91
2022/02/02 13:24:03;;;;;;;16.13;1.50;;;10.30;99.90;;;;;;6127546;23;20021;-90
2022/02/02 13:32:09;;;;;;;12.30;0.77;;;10.40;99.90;;;;;;6128059;23;20330;-89
2022/02/02 14:01:05;;;;;;;5.90;0.50;;;10.20;99.90;;;;;;6039136;23;20491;-89
2022/02/02 14:09:12;;;;;;;11.02;1.33;;;10.10;99.90;;;;;;6034265;23;20094;-91
2022/02/02 14:33:23;;;;;;;9.80;0.77;;;9.90;99.90;;;;;;6062383;23;20007;-87
2022/02/02 14:35:50;;;;;;;9.68;0.63;;;9.90;99.90;;;;;;6038549;23;20453;-88
2022/02/02 14:38:18;;;;;;;10.05;1.00;;;9.90;99.90;;;;;;6038459;23;20041;-88
2022/02/02 14:43:21;;;;;;;12.40;1.27;;;9.80;99.90;;;;;;6098606;23;20442;-90
2022/02/02 14:45:52;;;;;;;11.13;0.82;;;9.80;99.90;;;;;;6098813;23;20090;-85
2022/02/02 14:48:31;;;;;;;11.45;0.88;;;9.90;99.90;;;;;;6098956;23;20006;-85
2022/02/02 14:51:13;;;;;;;13.45;1.00;;;9.80;99.90;;;;;;6099278;23;20020;-85
2022/02/02 14:53:52;;;;;;;10.45;1.38;;;9.80;99.90;;;;;;6119361;23;20044;-90
2022/02/02 15:16:45;;;;;;;6.65;0.70;;;9.40;99.90;;;;;;6152181;23;20037;-84
2022/02/02 15:27:14;;;;;;;7.93;0.85;;;9.40;99.90;;;;;;6151935;23;20025;-87
2022/02/02 15:29:18;;;;;;;13.15;1.00;;;9.30;99.90;;;;;;6152668;23;19998;-85
2022/02/02 15:31:45;;;;;;;11.93;0.70;;;9.30;99.90;;;;;;6154082;23;20133;-90
2022/02/02 15:34:16;;;;;;;6.32;0.68;;;9.20;99.90;;;;;;6151803;23;20069;-87
2022/02/02 15:39:21;;;;;;;7.22;0.40;;;9.00;99.90;;;;;;6152610;23;20132;-87
2022/02/02 15:55:21;;;;;;;7.22;0.60;;;8.40;99.90;;;;;;6153760;23;20014;-89
2022/02/02 16:03:09;;;;;;;7.57;0.50;;;8.10;99.90;;;;;;6154255;23;20419;-89
2022/02/02 16:05:44;;;;;;;3.88;0.30;;;8.00;99.90;;;;;;6151263;23;20036;-87
2022/02/02 16:08:11;;;;;;;6.68;0.50;;;7.90;99.90;;;;;;6127609;23;20009;-86
2022/02/02 16:35:08;;;;;;;4.32;0.40;;;7.50;99.90;;;;;;6151670;23;20512;-87
2022/02/02 16:37:37;;;;;;;11.52;1.00;;;7.70;99.90;;;;;;6151895;23;20085;-83
2022/02/02 16:40:06;;;;;;;13.98;0.90;;;7.80;99.90;;;;;;6153311;23;20080;-85
2022/02/02 16:45:18;;;;;;;6.47;0.57;;;7.60;99.90;;;;;;6152153;23;20076;-87
2022/02/02 16:47:44;;;;;;;4.50;0.40;;;7.50;99.90;;;;;;6151534;23;20001;-87
2022/02/02 16:50:17;;;;;;;7.55;0.70;;;7.50;99.90;;;;;;6152492;23;20016;-86
2022/02/02 16:52:43;;;;;;;4.55;0.38;;;7.40;99.90;;;;;;6151533;23;20010;-86
2022/02/02 16:55:17;;;;;;;6.97;0.40;;;7.30;99.90;;;;;;6127590;23;20505;-87
2022/02/02 16:57:56;;;;;;;4.55;0.20;;;7.20;99.90;;;;;;6127427;23;20013;-84
2022/02/02 17:30:09;;;;;;;5.45;0.38;;;7.10;99.90;;;;;;6127632;23;20009;-84
2022/02/02 17:32:45;;;;;;;5.32;0.50;;;7.10;99.90;;;;;;6101801;23;20009;-86
2022/02/02 17:35:31;;;;;;;3.95;0.32;;;7.00;99.90;;;;;;6127104;23;20105;-87
2022/02/02 17:38:14;;;;;;;3.00;0.30;;;7.10;99.90;;;;;;6102981;23;20011;-85
2022/02/02 17:40:55;;;;;;;3.78;0.40;;;7.10;99.90;;;;;;6102203;23;20021;-84
2022/02/02 17:43:40;;;;;;;4.18;0.47;;;7.10;99.90;;;;;;6127120;23;20048;-83
2022/02/02 18:17:28;;;;;;;3.83;0.40;;;6.90;99.90;;;;;;6066298;23;20010;-83
2022/02/02 18:19:13;;;;;;;4.18;0.60;;;6.90;99.90;;;;;;6090873;23;20049;-85
2022/02/02 18:21:39;;;;;;;3.17;0.57;;;7.00;99.90;;;;;;6066711;23;20006;-84
2022/02/02 18:24:19;;;;;;;5.80;0.40;;;7.00;99.90;;;;;;6090543;23;20007;-83
2022/02/02 18:27:07;;;;;;;4.60;0.35;;;7.00;99.90;;;;;;6091059;23;20010;-83
2022/02/02 18:30:23;;;;;;;7.90;0.70;;;7.10;99.90;;;;;;6066003;23;20421;-83
2022/02/02 18:35:00;;;;;;;5.03;0.60;;;7.10;99.90;;;;;;6067144;23;20010;-84
2022/02/02 18:50:56;;;;;;;4.95;0.75;;;7.30;99.90;;;;;;6105416;23;20367;-82
2022/02/02 18:56:18;;;;;;;8.95;2.00;;;7.30;99.90;;;;;;6150715;23;20013;-83
2022/02/02 18:59:01;;;;;;;4.55;0.88;;;7.40;99.90;;;;;;6126348;23;20021;-83
2022/02/02 19:01:41;;;;;;;6.95;1.35;;;7.40;99.90;;;;;;6126908;23;20051;-80
2022/02/02 19:07:16;;;;;;;6.80;2.03;;;7.50;99.90;;;;;;6152293;23;20010;-83
2022/02/02 19:37:58;;;;;;;6.20;1.70;;;7.60;99.90;;;;;;6006264;23;20011;-80
2022/02/02 19:56:40;;;;;;;4.13;1.55;;;7.60;99.90;;;;;;5994486;23;20415;-81
2022/02/02 20:02:05;;;;;;;5.65;1.20;;;7.60;99.90;;;;;;6033363;23;20012;-83
2022/02/02 20:04:53;;;;;;;6.00;1.10;;;7.60;99.90;;;;;;5986105;23;20007;-83
2022/02/02 20:12:25;;;;;;;5.80;1.65;;;7.60;99.90;;;;;;6150407;23;20020;-81
2022/02/02 20:14:50;;;;;;;4.45;1.15;;;7.60;99.90;;;;;;6125534;23;20009;-80
2022/02/02 20:17:18;;;;;;;4.78;1.20;;;7.60;99.90;;;;;;6150660;23;20032;-80
2022/02/02 20:19:49;;;;;;;6.78;1.30;;;7.60;99.90;;;;;;6125842;23;20026;-81
2022/02/02 20:22:18;;;;;;;6.80;1.40;;;7.60;99.90;;;;;;6150007;23;20006;-82
2022/02/02 20:24:52;;;;;;;5.28;1.10;;;7.60;99.90;;;;;;6125987;23;20032;-80
2022/02/02 20:27:18;;;;;;;7.82;1.65;;;7.60;99.90;;;;;;6151682;23;19997;-80
2022/02/02 20:29:43;;;;;;;5.45;1.60;;;7.60;99.90;;;;;;6126299;23;20111;-81
2022/02/02 20:32:09;;;;;;;6.68;1.73;;;7.60;99.90;;;;;;6126219;23;20017;-82
2022/02/02 20:34:35;;;;;;;10.55;1.95;;;7.50;99.90;;;;;;6126014;23;20374;-82
2022/02/02 20:37:00;;;;;;;6.32;1.88;;;7.50;99.90;;;;;;6126029;23;20332;-81
2022/02/02 20:41:57;;;;;;;7.82;2.38;;;7.50;99.90;;;;;;6151886;23;20059;-82
2022/02/02 20:44:36;;;;;;;6.63;1.88;;;7.50;99.90;;;;;;6151764;23;20013;-82
2022/02/02 21:01:10;;;;;;;5.25;2.00;;;7.50;99.90;;;;;;6152080;23;20013;-85
2022/02/02 21:03:40;;;;;;;6.00;2.33;;;7.50;99.90;;;;;;6151588;23;20304;-80
2022/02/02 21:11:19;;;;;;;5.65;2.85;;;7.60;99.90;;;;;;6153596;23;20081;-84
2022/02/02 21:13:52;;;;;;;7.07;2.88;;;7.70;99.90;;;;;;6127258;23;20006;-82
2022/02/02 21:16:26;;;;;;;7.47;2.65;;;7.70;99.90;;;;;;6127772;23;20096;-85
2022/02/02 21:18:55;;;;;;;5.78;2.83;;;7.70;99.90;;;;;;6150845;23;20117;-84
2022/02/02 21:21:25;;;;;;;6.50;2.67;;;7.80;99.90;;;;;;6152091;23;20005;-83
2022/02/02 21:29:12;;;;;;;4.32;2.40;;;7.90;99.90;;;;;;6152049;23;20013;-84
2022/02/02 21:31:39;;;;;;;8.00;4.53;;;7.90;99.90;;;;;;6151793;23;20067;-83
2022/02/02 21:34:07;;;;;;;9.85;5.07;;;8.00;99.90;;;;;;6127424;23;20022;-82
2022/02/02 21:36:33;;;;;;;14.30;7.65;;;8.00;99.90;;;;;;6127341;23;20040;-84
2022/02/02 21:39:07;;;;;;;17.50;9.57;;;8.10;99.90;;;;;;6151510;23;20226;-83
2022/02/02 21:41:36;;;;;;;15.43;8.45;;;8.20;99.90;;;;;;6127268;23;20439;-87
2022/02/02 21:44:04;;;;;;;20.67;11.02;;;8.20;99.90;;;;;;6127694;23;20452;-83
2022/02/02 21:46:30;;;;;;;15.20;8.45;;;8.20;99.90;;;;;;6127066;23;20311;-84
2022/02/02 21:48:59;;;;;;;21.27;10.77;;;8.20;99.90;;;;;;6127288;23;20044;-83
2022/02/02 21:51:35;;;;;;;19.13;11.13;;;8.30;99.90;;;;;;6126950;23;20089;-84
2022/02/02 21:54:01;;;;;;;16.75;7.55;;;8.20;99.90;;;;;;6126961;23;20105;-84
2022/02/02 21:56:28;;;;;;;15.43;7.18;;;8.30;99.90;;;;;;6126928;23;20002;-83
2022/02/02 21:58:54;;;;;;;18.45;9.10;;;8.30;99.90;;;;;;6127786;23;20017;-83
2022/02/02 22:01:20;;;;;;;17.77;9.13;;;8.30;99.90;;;;;;6151828;23;20152;-83
2022/02/02 22:03:46;;;;;;;15.68;7.97;;;8.30;99.90;;;;;;6126713;23;20005;-83
2022/02/02 22:06:12;;;;;;;12.82;7.25;;;8.30;99.90;;;;;;6127218;23;20009;-84
2022/02/02 22:08:38;;;;;;;12.55;6.13;;;8.30;99.90;;;;;;6126311;23;20029;-83
2022/02/02 22:11:04;;;;;;;11.13;5.47;;;8.20;99.90;;;;;;6127022;23;20096;-83
2022/02/02 22:13:39;;;;;;;9.70;4.78;;;8.20;99.90;;;;;;6151381;23;20453;-83
2022/02/02 22:16:10;;;;;;;10.13;5.15;;;8.20;99.90;;;;;;6127386;23;20009;-82
2022/02/02 22:18:36;;;;;;;6.60;3.00;;;8.20;99.90;;;;;;6126848;23;20018;-83
2022/02/02 22:21:03;;;;;;;10.95;5.68;;;8.20;99.90;;;;;;6126482;23;20458;-83
2022/02/02 22:23:28;;;;;;;9.00;4.20;;;8.20;99.90;;;;;;6151368;23;20037;-86
2022/02/02 22:25:56;;;;;;;10.02;4.88;;;8.20;99.90;;;;;;6126657;23;20130;-82
2022/02/02 22:28:22;;;;;;;12.90;6.72;;;8.30;99.90;;;;;;6127229;23;20010;-83
2022/02/02 22:30:47;;;;;;;10.60;5.85;;;8.30;99.90;;;;;;6126820;23;20057;-84
2022/02/02 22:33:13;;;;;;;9.30;4.53;;;8.30;99.90;;;;;;6126705;23;20390;-85
2022/02/02 22:35:39;;;;;;;12.90;6.05;;;8.30;99.90;;;;;;6126573;23;20005;-84
2022/02/02 22:38:04;;;;;;;13.93;7.10;;;8.30;99.90;;;;;;6127113;23;20006;-84
2022/02/02 22:40:30;;;;;;;14.98;7.45;;;8.30;99.90;;;;;;6126750;23;20006;-84
2022/02/02 22:42:56;;;;;;;11.88;5.85;;;8.30;99.90;;;;;;6151651;23;20010;-85
2022/02/02 22:45:21;;;;;;;12.15;5.75;;;8.30;99.90;;;;;;6127275;23;20005;-84
2022/02/02 22:47:48;;;;;;;8.93;4.38;;;8.30;99.90;;;;;;6126787;23;20010;-83
2022/02/02 22:50:16;;;;;;;9.80;4.20;;;8.30;99.90;;;;;;6126616;23;20010;-84
2022/02/02 22:52:47;;;;;;;10.98;5.68;;;8.30;99.90;;;;;;6126566;23;20103;-85
2022/02/02 22:55:15;;;;;;;9.93;5.05;;;8.30;99.90;;;;;;6127264;23;20498;-83
2022/02/02 22:57:41;;;;;;;10.93;5.20;;;8.30;99.90;;;;;;6126855;23;20012;-84
2022/02/02 23:00:12;;;;;;;11.48;5.85;;;8.30;99.90;;;;;;6126720;23;20022;-85
2022/02/02 23:05:22;;;;;;;11.15;5.60;;;8.30;99.90;;;;;;6154768;23;20008;-85
2022/02/02 23:07:48;;;;;;;14.52;7.85;;;8.30;99.90;;;;;;6128715;23;20013;-83
2022/02/02 23:10:14;;;;;;;13.00;6.75;;;8.30;99.90;;;;;;6128881;23;20068;-84
2022/02/02 23:12:39;;;;;;;14.43;8.13;;;8.30;99.90;;;;;;6128785;23;20398;-85
2022/02/02 23:15:10;;;;;;;12.40;6.82;;;8.40;99.90;;;;;;6128893;23;20328;-83
2022/02/02 23:17:36;;;;;;;12.35;6.32;;;8.30;99.90;;;;;;6128981;23;20127;-84
2022/02/02 23:20:03;;;;;;;10.88;6.22;;;8.40;99.90;;;;;;6128406;23;20018;-84
2022/02/02 23:22:31;;;;;;;11.80;7.15;;;8.30;99.90;;;;;;6153094;23;20013;-84
2022/02/02 23:25:03;;;;;;;22.38;13.75;;;8.30;99.90;;;;;;6128680;23;20394;-86
2022/02/02 23:27:31;;;;;;;20.52;12.05;;;8.40;99.90;;;;;;6128420;23;20099;-85
2022/02/02 23:30:00;;;;;;;20.88;11.52;;;8.40;99.90;;;;;;6129470;23;20012;-83